Time;durP1;ratioP1;P1;durP2;ratioP2;P2;SDS_P1;SDS_P2;PMS_P1;PMS_P2;Temp;Humidity;BMP_temperature;BMP_pressure;BME280_temperature;BME280_humidity;BME280_pressure;Samples;Min_cycle;Max_cycle;Signal;HPM_P1;HPM_P2
2023/03/11 00:01:02;;;;;;;17.55;13.57;;;3.70;99.90;;;;;;5113714;28;20267;-52
2023/03/11 00:03:29;;;;;;;19.15;15.13;;;3.60;99.90;;;;;;5113270;28;20260;-51
2023/03/11 00:05:57;;;;;;;26.80;15.98;;;3.60;99.90;;;;;;5113474;28;20726;-51
2023/03/11 00:08:24;;;;;;;19.60;15.20;;;3.60;99.90;;;;;;5113342;28;20311;-52
2023/03/11 00:10:53;;;;;;;19.83;15.85;;;3.70;99.90;;;;;;5113587;28;20647;-51
2023/03/11 00:13:20;;;;;;;19.75;14.60;;;3.10;99.90;;;;;;5113503;28;20210;-52
2023/03/11 00:15:49;;;;;;;20.23;13.75;;;3.60;99.90;;;;;;5113200;28;20218;-51
2023/03/11 00:18:18;;;;;;;19.85;15.48;;;3.30;99.90;;;;;;5112919;28;20196;-51
2023/03/11 00:20:46;;;;;;;23.55;16.50;;;3.30;99.90;;;;;;5113370;28;20584;-51
2023/03/11 00:23:14;;;;;;;20.75;14.20;;;3.40;99.90;;;;;;5112977;28;20225;-51
2023/03/11 00:25:44;;;;;;;24.38;16.73;;;3.60;99.90;;;;;;5113471;28;20194;-49
2023/03/11 00:28:11;;;;;;;19.25;14.65;;;3.30;99.90;;;;;;5112936;28;20202;-52
2023/03/11 00:30:39;;;;;;;18.95;14.70;;;3.20;99.90;;;;;;5094884;28;20197;-52
2023/03/11 00:33:07;;;;;;;21.33;15.15;;;3.30;99.90;;;;;;5112999;28;20300;-52
2023/03/11 00:35:36;;;;;;;17.67;13.18;;;2.60;99.90;;;;;;5113513;28;20534;-51
2023/03/11 00:38:05;;;;;;;17.27;13.63;;;3.10;99.90;;;;;;5113562;28;20268;-52
2023/03/11 00:40:34;;;;;;;17.73;13.45;;;3.10;99.90;;;;;;5095112;28;20201;-52
2023/03/11 00:43:02;;;;;;;16.45;12.43;;;3.00;99.90;;;;;;5095467;28;20218;-51
2023/03/11 00:45:29;;;;;;;14.02;11.30;;;2.60;99.90;;;;;;5113632;28;20189;-50
2023/03/11 00:47:56;;;;;;;15.82;12.18;;;2.90;99.90;;;;;;5094987;28;20198;-50
2023/03/11 00:50:26;;;;;;;14.90;12.45;;;3.40;99.90;;;;;;5094450;28;20233;-51
2023/03/11 00:52:55;;;;;;;17.00;13.82;;;3.00;99.90;;;;;;5094739;28;20272;-51
2023/03/11 00:55:25;;;;;;;18.58;12.95;;;2.70;99.90;;;;;;5094600;28;20202;-51
2023/03/11 00:57:54;;;;;;;15.88;13.57;;;2.90;99.90;;;;;;5094800;28;20468;-50
2023/03/11 01:00:22;;;;;;;16.02;12.85;;;2.90;99.90;;;;;;5094163;28;20206;-51
2023/03/11 01:02:49;;;;;;;15.85;13.75;;;2.90;99.90;;;;;;5112418;28;20225;-50
2023/03/11 01:05:19;;;;;;;17.17;14.82;;;2.80;99.90;;;;;;5112890;28;20198;-51
2023/03/11 01:07:45;;;;;;;16.73;13.35;;;3.00;99.90;;;;;;5112681;28;20198;-50
2023/03/11 01:10:13;;;;;;;17.10;14.55;;;2.60;99.90;;;;;;5111403;28;20556;-52
2023/03/11 01:12:40;;;;;;;16.30;13.60;;;2.50;99.90;;;;;;5094246;28;20228;-50
2023/03/11 01:15:09;;;;;;;17.05;14.02;;;2.90;99.90;;;;;;5094442;28;20208;-51
2023/03/11 01:17:35;;;;;;;19.35;14.40;;;2.70;99.90;;;;;;5094254;28;20229;-53
2023/03/11 01:20:06;;;;;;;17.95;13.75;;;2.60;99.90;;;;;;5093665;28;20243;-51
2023/03/11 01:22:32;;;;;;;20.10;15.75;;;2.50;99.90;;;;;;5093974;28;20594;-50
2023/03/11 01:24:59;;;;;;;17.52;14.15;;;2.70;99.90;;;;;;5112320;28;20284;-50
2023/03/11 01:27:27;;;;;;;17.35;14.57;;;2.80;99.90;;;;;;5094148;28;20214;-50
2023/03/11 01:29:54;;;;;;;20.02;16.00;;;2.70;99.90;;;;;;5093539;28;20198;-51
2023/03/11 01:32:21;;;;;;;19.33;14.50;;;2.60;99.90;;;;;;5112226;28;20638;-51
2023/03/11 01:34:48;;;;;;;19.50;15.00;;;2.80;99.90;;;;;;5094145;28;20193;-51
2023/03/11 01:37:14;;;;;;;19.83;14.80;;;2.40;99.90;;;;;;5093870;28;20225;-50
2023/03/11 01:39:41;;;;;;;15.15;12.20;;;2.70;99.90;;;;;;5111910;28;20232;-51
2023/03/11 01:42:08;;;;;;;16.13;12.68;;;2.00;99.90;;;;;;5093915;28;20214;-50
2023/03/11 01:44:36;;;;;;;14.23;12.32;;;2.50;99.90;;;;;;5093743;28;20202;-51
2023/03/11 01:47:32;;;;;;;13.02;10.38;;;2.60;99.90;;;;;;5112353;28;20198;-50
2023/03/11 01:49:59;;;;;;;10.45;9.32;;;2.60;99.90;;;;;;5093487;28;20201;-52
2023/03/11 01:52:25;;;;;;;9.70;8.23;;;3.10;99.90;;;;;;5112273;28;20218;-49
2023/03/11 01:54:52;;;;;;;9.55;7.95;;;2.40;99.90;;;;;;5093731;28;20569;-50
2023/03/11 01:57:21;;;;;;;9.27;7.47;;;2.40;99.90;;;;;;5111812;28;20214;-51
2023/03/11 01:59:55;;;;;;;8.98;6.97;;;2.40;99.90;;;;;;5093384;28;20205;-51
2023/03/11 02:02:25;;;;;;;5.82;5.05;;;2.50;99.90;;;;;;5111990;28;20214;-52
2023/03/11 02:04:53;;;;;;;5.63;4.90;;;2.30;99.90;;;;;;5093777;28;20430;-52
2023/03/11 02:07:22;;;;;;;5.30;4.80;;;2.50;99.90;;;;;;5110838;28;20198;-52
2023/03/11 02:09:49;;;;;;;4.43;3.83;;;2.40;99.90;;;;;;5093352;28;20247;-51
2023/03/11 02:12:16;;;;;;;4.57;3.50;;;2.70;99.90;;;;;;5093570;28;20256;-52
2023/03/11 02:14:47;;;;;;;3.75;3.30;;;2.40;99.90;;;;;;5093736;28;20662;-52
2023/03/11 02:17:16;;;;;;;3.88;3.00;;;2.50;99.90;;;;;;5110439;28;20236;-51
2023/03/11 02:19:59;;;;;;;3.70;2.72;;;1.70;99.90;;;;;;5093161;28;20197;-51
2023/03/11 02:22:27;;;;;;;3.95;3.17;;;2.30;99.90;;;;;;5095973;28;20233;-51
2023/03/11 02:25:01;;;;;;;2.78;2.40;;;2.20;99.90;;;;;;5115611;28;20258;-51
2023/03/11 02:27:33;;;;;;;2.20;2.00;;;2.50;99.90;;;;;;5115518;28;20190;-51
2023/03/11 02:30:02;;;;;;;3.00;2.58;;;2.20;99.90;;;;;;5096864;28;20568;-50
2023/03/11 02:32:32;;;;;;;2.55;2.35;;;2.10;99.90;;;;;;5114050;28;20232;-51
2023/03/11 02:34:58;;;;;;;2.50;2.30;;;2.30;99.90;;;;;;5114258;28;20233;-52
2023/03/11 02:37:25;;;;;;;3.20;2.42;;;2.30;99.90;;;;;;5097019;28;20245;-52
2023/03/11 02:40:31;;;;;;;2.80;2.10;;;2.30;99.90;;;;;;5096741;28;20209;-51
2023/03/11 02:43:02;;;;;;;2.88;2.53;;;2.40;99.90;;;;;;5115131;28;20242;-52
2023/03/11 02:45:30;;;;;;;2.60;2.40;;;2.20;99.90;;;;;;5113903;28;20201;-51
2023/03/11 02:47:59;;;;;;;3.00;2.70;;;2.30;99.90;;;;;;5114954;28;20221;-52
2023/03/11 02:50:27;;;;;;;3.10;2.80;;;2.10;99.90;;;;;;5096539;28;20664;-52
2023/03/11 02:52:55;;;;;;;4.20;3.80;;;1.80;99.90;;;;;;5096533;28;20225;-53
2023/03/11 02:55:23;;;;;;;2.30;2.10;;;1.70;99.90;;;;;;5113688;28;20201;-51
2023/03/11 02:57:50;;;;;;;2.40;2.20;;;2.60;99.90;;;;;;5113400;28;20689;-52
2023/03/11 03:00:20;;;;;;;2.40;2.20;;;2.40;99.90;;;;;;5096199;28;20198;-51
2023/03/11 03:02:56;;;;;;;3.38;2.50;;;2.10;99.90;;;;;;5096391;28;20709;-51
2023/03/11 03:05:25;;;;;;;3.08;2.58;;;2.40;99.90;;;;;;5096344;28;20256;-52
2023/03/11 03:07:51;;;;;;;2.50;2.30;;;2.20;99.90;;;;;;5096410;28;20284;-51
2023/03/11 03:10:19;;;;;;;2.92;2.72;;;2.20;99.90;;;;;;5096042;28;20202;-51
2023/03/11 03:12:46;;;;;;;3.40;3.00;;;2.40;99.90;;;;;;5096202;28;20283;-52
2023/03/11 03:15:14;;;;;;;3.05;2.72;;;2.30;99.90;;;;;;5096471;28;20204;-52
2023/03/11 03:17:42;;;;;;;3.42;3.13;;;2.10;99.90;;;;;;5096643;28;20271;-51
2023/03/11 03:20:12;;;;;;;3.72;2.90;;;2.40;99.90;;;;;;5114195;28;20626;-49
2023/03/11 03:22:42;;;;;;;4.00;3.25;;;2.30;99.90;;;;;;5096148;28;20747;-51
2023/03/11 03:25:10;;;;;;;4.07;3.10;;;2.30;99.90;;;;;;5113247;28;20591;-50
2023/03/11 03:27:37;;;;;;;4.30;3.40;;;2.40;99.90;;;;;;5114412;28;20214;-50
2023/03/11 03:30:07;;;;;;;4.05;3.65;;;2.40;99.90;;;;;;5095709;28;20205;-51
2023/03/11 03:32:34;;;;;;;5.60;4.63;;;2.30;99.90;;;;;;5095533;28;20685;-50
2023/03/11 03:35:04;;;;;;;5.10;4.70;;;2.40;99.90;;;;;;5095545;28;20662;-50
2023/03/11 03:37:48;;;;;;;6.70;4.22;;;2.50;99.90;;;;;;5095587;28;20229;-50
2023/03/11 03:40:15;;;;;;;4.75;3.85;;;2.60;99.90;;;;;;5114057;28;20615;-52
2023/03/11 03:42:41;;;;;;;5.43;4.93;;;2.40;99.90;;;;;;5095652;28;20214;-50
2023/03/11 03:45:10;;;;;;;3.90;3.50;;;2.60;99.90;;;;;;5095791;28;20202;-51
2023/03/11 03:47:37;;;;;;;4.72;3.80;;;2.40;99.90;;;;;;5095554;28;20226;-52
2023/03/11 03:50:08;;;;;;;4.35;3.95;;;1.60;99.90;;;;;;5113510;28;20281;-52
2023/03/11 03:52:36;;;;;;;4.00;3.60;;;2.30;99.90;;;;;;5095600;28;20217;-51
2023/03/11 03:55:03;;;;;;;4.20;3.80;;;2.20;99.90;;;;;;5095626;28;20224;-51
2023/03/11 03:57:30;;;;;;;4.07;3.67;;;2.50;99.90;;;;;;5113688;28;20304;-51
2023/03/11 03:59:57;;;;;;;7.13;5.05;;;2.50;99.90;;;;;;5113303;28;20684;-51
2023/03/11 04:02:23;;;;;;;6.05;4.70;;;2.30;99.90;;;;;;5095196;28;20590;-51
2023/03/11 04:04:52;;;;;;;5.47;4.63;;;2.40;99.90;;;;;;5113792;28;20193;-51
2023/03/11 04:07:21;;;;;;;7.05;4.60;;;2.90;99.90;;;;;;5095376;28;20198;-52
2023/03/11 04:09:48;;;;;;;6.47;5.10;;;2.50;99.90;;;;;;5094990;28;20229;-51
2023/03/11 04:12:16;;;;;;;6.75;5.03;;;2.70;99.90;;;;;;5095313;28;20256;-51
2023/03/11 04:14:44;;;;;;;6.00;5.40;;;2.20;99.90;;;;;;5112204;28;20198;-51
2023/03/11 04:17:11;;;;;;;7.07;5.40;;;2.00;99.90;;;;;;5111925;28;20275;-51
2023/03/11 04:19:38;;;;;;;5.47;4.80;;;2.50;99.90;;;;;;5111738;28;20722;-51
2023/03/11 04:22:05;;;;;;;5.97;5.10;;;2.60;99.90;;;;;;5094751;28;20715;-51
2023/03/11 04:24:33;;;;;;;7.00;5.60;;;2.30;99.90;;;;;;5111979;28;20237;-51
2023/03/11 04:27:00;;;;;;;10.15;5.45;;;2.60;99.90;;;;;;5094818;28;20186;-51
2023/03/11 04:29:27;;;;;;;6.30;5.40;;;2.30;99.90;;;;;;5094716;28;20201;-51
2023/03/11 04:31:54;;;;;;;6.00;4.90;;;2.70;99.90;;;;;;5094697;28;20643;-51
2023/03/11 04:34:21;;;;;;;7.00;5.22;;;2.40;99.90;;;;;;5113134;28;20293;-51
2023/03/11 04:36:47;;;;;;;5.63;5.00;;;2.50;99.90;;;;;;5113034;28;20220;-51
2023/03/11 04:39:16;;;;;;;5.90;4.90;;;2.10;99.90;;;;;;5094376;28;20673;-52
2023/03/11 04:41:46;;;;;;;6.07;4.88;;;2.30;99.90;;;;;;5094539;28;20213;-52
2023/03/11 04:44:17;;;;;;;5.90;5.30;;;2.40;99.90;;;;;;5094565;28;20201;-52
2023/03/11 04:46:44;;;;;;;6.47;5.60;;;2.30;99.90;;;;;;5094550;28;20198;-52
2023/03/11 04:49:11;;;;;;;5.40;4.72;;;2.70;99.90;;;;;;5112510;28;20285;-51
2023/03/11 04:51:38;;;;;;;4.70;4.18;;;2.00;99.90;;;;;;5112742;28;20209;-51
2023/03/11 04:54:06;;;;;;;4.63;4.10;;;2.50;99.90;;;;;;5094272;28;20247;-51
2023/03/11 04:56:33;;;;;;;6.40;5.00;;;2.60;99.90;;;;;;5094403;28;20198;-51
2023/03/11 04:59:02;;;;;;;5.25;4.70;;;2.70;99.90;;;;;;5094097;28;20198;-51
2023/03/11 05:01:30;;;;;;;5.30;4.50;;;2.70;99.90;;;;;;5094334;28;20206;-51
2023/03/11 05:04:00;;;;;;;5.60;4.60;;;2.50;99.90;;;;;;5094381;28;20194;-51
2023/03/11 05:06:26;;;;;;;6.18;3.78;;;2.60;99.90;;;;;;5094275;28;20202;-50
2023/03/11 05:08:53;;;;;;;4.22;3.83;;;2.30;99.90;;;;;;5093881;28;20189;-51
2023/03/11 05:11:20;;;;;;;4.80;4.40;;;2.60;99.90;;;;;;5094356;28;20201;-51
2023/03/11 05:13:47;;;;;;;6.13;4.32;;;2.50;99.90;;;;;;5094248;28;20198;-51
2023/03/11 05:16:16;;;;;;;6.10;4.90;;;2.40;99.90;;;;;;5094218;28;20198;-50
2023/03/11 05:18:43;;;;;;;6.22;4.55;;;2.10;99.90;;;;;;5093797;28;20666;-51
2023/03/11 05:21:12;;;;;;;6.55;4.53;;;2.40;99.90;;;;;;5094244;28;20197;-50
2023/03/11 05:23:39;;;;;;;5.30;4.80;;;2.40;99.90;;;;;;5111911;22;20266;-53
2023/03/11 05:26:06;;;;;;;5.38;4.13;;;2.50;99.90;;;;;;5091403;28;20190;-51
2023/03/11 05:28:33;;;;;;;5.10;4.35;;;2.50;99.90;;;;;;5090101;28;20277;-52
2023/03/11 05:31:01;;;;;;;6.70;4.68;;;2.60;99.90;;;;;;5090243;28;20226;-52
2023/03/11 05:33:34;;;;;;;6.13;4.25;;;2.30;99.90;;;;;;5090425;28;20593;-54
2023/03/11 05:36:07;;;;;;;7.40;4.80;;;2.30;99.90;;;;;;5090322;28;20574;-49
2023/03/11 05:38:34;;;;;;;5.50;4.38;;;2.70;99.90;;;;;;5089659;28;20226;-50
2023/03/11 05:41:01;;;;;;;4.82;4.10;;;2.60;99.90;;;;;;5090135;28;20248;-52
2023/03/11 05:43:28;;;;;;;4.75;4.25;;;2.50;99.90;;;;;;5091526;28;20207;-51
2023/03/11 05:45:55;;;;;;;4.35;3.55;;;2.70;99.90;;;;;;5090212;28;20409;-51
2023/03/11 05:48:21;;;;;;;5.57;3.80;;;2.50;99.90;;;;;;5091187;28;20228;-50
2023/03/11 05:50:50;;;;;;;4.38;3.88;;;2.60;99.90;;;;;;5090061;28;20195;-50
2023/03/11 05:53:17;;;;;;;6.50;4.10;;;2.00;99.90;;;;;;5089887;28;20218;-53
2023/03/11 05:55:44;;;;;;;5.07;3.88;;;2.10;99.90;;;;;;5089965;28;20616;-51
2023/03/11 05:58:11;;;;;;;5.53;4.35;;;2.90;99.90;;;;;;5093518;28;20231;-49
2023/03/11 06:00:38;;;;;;;5.90;4.95;;;2.30;99.90;;;;;;5093873;28;20199;-50
2023/03/11 06:03:05;;;;;;;4.15;3.80;;;2.70;99.90;;;;;;5093743;28;20671;-51
2023/03/11 06:05:32;;;;;;;4.90;4.40;;;2.60;99.90;;;;;;5093860;28;20327;-50
2023/03/11 06:08:00;;;;;;;4.70;4.22;;;2.20;99.90;;;;;;5095131;28;20368;-52
2023/03/11 06:10:28;;;;;;;4.60;4.15;;;2.10;99.90;;;;;;5093647;28;20305;-51
2023/03/11 06:12:54;;;;;;;5.68;5.07;;;2.60;99.90;;;;;;5095068;28;20301;-51
2023/03/11 06:15:25;;;;;;;5.30;4.78;;;2.60;99.90;;;;;;5093610;28;20658;-50
2023/03/11 06:17:53;;;;;;;6.00;4.57;;;2.70;99.90;;;;;;5093426;28;20249;-50
2023/03/11 06:20:20;;;;;;;7.45;6.32;;;2.90;99.90;;;;;;5094591;28;20191;-52
2023/03/11 06:22:48;;;;;;;6.90;4.82;;;2.70;99.90;;;;;;5093277;28;20231;-52
2023/03/11 06:25:17;;;;;;;6.03;5.43;;;2.60;99.90;;;;;;5093525;28;20259;-50
2023/03/11 06:27:49;;;;;;;5.75;4.68;;;2.50;99.90;;;;;;5093398;28;20209;-51
2023/03/11 06:30:16;;;;;;;6.97;5.53;;;2.50;99.90;;;;;;5092969;28;20242;-54
2023/03/11 06:32:52;;;;;;;7.35;5.50;;;2.50;99.90;;;;;;5093259;28;20210;-50
2023/03/11 06:35:19;;;;;;;8.95;6.40;;;2.60;99.90;;;;;;5093132;28;20285;-49
2023/03/11 06:37:46;;;;;;;7.75;6.38;;;2.60;99.90;;;;;;5094604;28;20218;-48
2023/03/11 06:40:12;;;;;;;7.00;5.50;;;2.40;99.90;;;;;;5094063;28;20199;-51
2023/03/11 06:42:41;;;;;;;6.70;5.70;;;2.70;99.90;;;;;;5093038;28;20310;-49
2023/03/11 06:45:11;;;;;;;6.50;5.50;;;2.70;99.90;;;;;;5093383;28;20198;-52
2023/03/11 06:47:39;;;;;;;8.60;6.45;;;2.60;99.90;;;;;;5092663;28;20195;-48
2023/03/11 06:50:08;;;;;;;6.78;5.72;;;2.60;99.90;;;;;;5092592;28;20578;-50
2023/03/11 06:52:35;;;;;;;7.93;5.97;;;2.90;99.90;;;;;;5093080;28;20587;-49
2023/03/11 06:55:02;;;;;;;7.40;6.18;;;2.80;99.90;;;;;;5094099;28;20593;-50
2023/03/11 06:57:30;;;;;;;7.90;6.10;;;2.70;99.90;;;;;;5092934;28;20218;-50
2023/03/11 07:00:01;;;;;;;7.85;6.40;;;3.00;99.90;;;;;;5092721;28;20574;-50
2023/03/11 07:02:29;;;;;;;9.15;6.70;;;2.70;99.90;;;;;;5093105;28;20225;-51
2023/03/11 07:04:56;;;;;;;7.70;6.90;;;2.70;99.90;;;;;;5092929;28;20209;-51
2023/03/11 07:07:23;;;;;;;6.40;5.45;;;2.90;99.90;;;;;;5093802;28;20191;-51
2023/03/11 07:09:49;;;;;;;9.57;6.22;;;3.00;99.90;;;;;;5091422;28;20209;-50
2023/03/11 07:12:16;;;;;;;7.38;5.65;;;3.00;99.90;;;;;;5092415;28;20222;-50
2023/03/11 07:14:43;;;;;;;9.23;6.43;;;2.70;99.90;;;;;;5092421;28;20698;-51
2023/03/11 07:17:11;;;;;;;5.78;5.10;;;2.70;99.90;;;;;;5092504;28;20658;-49
2023/03/11 07:19:44;;;;;;;7.47;5.50;;;2.30;99.90;;;;;;5093533;28;20217;-52
2023/03/11 07:22:11;;;;;;;7.70;5.85;;;2.70;99.90;;;;;;5093594;28;20233;-51
2023/03/11 07:24:37;;;;;;;7.95;5.68;;;3.00;99.90;;;;;;5094197;28;20200;-52
2023/03/11 07:27:04;;;;;;;12.82;6.60;;;2.80;99.90;;;;;;5093809;28;20206;-51
2023/03/11 07:29:31;;;;;;;8.00;5.85;;;3.00;99.90;;;;;;5093591;28;20187;-50
2023/03/11 07:31:57;;;;;;;8.95;5.78;;;2.90;99.90;;;;;;5093859;28;20214;-50
2023/03/11 07:34:25;;;;;;;11.77;6.60;;;2.90;99.90;;;;;;5093476;28;20205;-52
2023/03/11 07:36:52;;;;;;;7.28;5.95;;;2.80;99.90;;;;;;5093325;28;20202;-51
2023/03/11 07:39:19;;;;;;;11.18;7.18;;;3.00;99.90;;;;;;5092567;28;20272;-50
2023/03/11 07:41:46;;;;;;;8.30;6.03;;;3.30;99.90;;;;;;5093444;28;20594;-53
2023/03/11 07:44:14;;;;;;;10.13;6.68;;;3.30;99.90;;;;;;5093441;28;20202;-51
2023/03/11 07:46:42;;;;;;;7.80;6.15;;;3.10;99.90;;;;;;5093238;28;20248;-50
2023/03/11 07:49:09;;;;;;;7.50;6.13;;;3.20;99.90;;;;;;5092640;28;20240;-49
2023/03/11 07:51:39;;;;;;;9.63;6.30;;;2.70;99.90;;;;;;5093665;28;20205;-51
2023/03/11 07:54:06;;;;;;;10.05;6.65;;;3.40;99.90;;;;;;5093167;28;20650;-50
2023/03/11 07:56:35;;;;;;;7.85;6.32;;;3.20;99.90;;;;;;5092821;28;20684;-49
2023/03/11 07:59:03;;;;;;;6.85;6.15;;;3.60;99.90;;;;;;5092342;28;20222;-50
2023/03/11 08:01:35;;;;;;;10.82;6.80;;;3.50;99.90;;;;;;5092774;28;20195;-49
2023/03/11 08:04:02;;;;;;;8.45;6.57;;;3.60;99.90;;;;;;5092657;28;20639;-49
2023/03/11 08:06:31;;;;;;;10.23;6.60;;;3.50;99.90;;;;;;5092770;28;20202;-52
2023/03/11 08:08:59;;;;;;;8.30;6.28;;;3.50;99.90;;;;;;5092319;28;20218;-50
2023/03/11 08:11:27;;;;;;;7.15;5.82;;;3.60;99.90;;;;;;5092687;28;20202;-50
2023/03/11 08:13:54;;;;;;;9.02;7.25;;;3.60;99.90;;;;;;5092600;28;20221;-50
2023/03/11 08:16:22;;;;;;;11.75;6.45;;;3.80;99.90;;;;;;5091077;28;20214;-50
2023/03/11 08:18:49;;;;;;;11.30;6.93;;;3.90;99.90;;;;;;5091819;28;20329;-51
2023/03/11 08:21:18;;;;;;;10.32;6.40;;;3.70;99.90;;;;;;5092404;28;20190;-49
2023/03/11 08:23:45;;;;;;;9.43;7.05;;;4.00;99.90;;;;;;5092618;28;20713;-50
2023/03/11 08:26:15;;;;;;;8.60;6.38;;;4.10;99.90;;;;;;5092653;28;20607;-49
2023/03/11 08:28:42;;;;;;;7.35;6.28;;;4.00;99.90;;;;;;5092105;28;20195;-49
2023/03/11 08:31:13;;;;;;;7.80;6.22;;;3.50;99.90;;;;;;5092425;28;20286;-49
2023/03/11 08:33:39;;;;;;;7.80;6.57;;;3.80;99.90;;;;;;5092673;28;20562;-51
2023/03/11 08:36:06;;;;;;;8.40;6.30;;;4.00;99.90;;;;;;5092000;28;20190;-49
2023/03/11 08:38:33;;;;;;;9.15;6.45;;;3.90;99.90;;;;;;5091526;28;20302;-50
2023/03/11 08:41:00;;;;;;;6.95;6.25;;;3.50;99.90;;;;;;5092067;28;20195;-49
2023/03/11 08:43:28;;;;;;;13.73;6.78;;;4.10;99.90;;;;;;5092012;28;20638;-50
2023/03/11 08:45:55;;;;;;;8.20;5.97;;;3.90;99.90;;;;;;5091936;28;20210;-52
2023/03/11 08:48:22;;;;;;;6.72;6.03;;;4.10;99.90;;;;;;5091560;28;20190;-50
2023/03/11 08:50:49;;;;;;;8.52;7.10;;;4.20;99.90;;;;;;5092337;28;20202;-50
2023/03/11 08:53:15;;;;;;;10.32;6.85;;;4.20;99.90;;;;;;5091831;28;20767;-50
2023/03/11 08:55:42;;;;;;;8.65;6.55;;;4.00;99.90;;;;;;5091711;28;20671;-50
2023/03/11 08:58:08;;;;;;;9.05;6.50;;;4.10;99.90;;;;;;5091339;28;20241;-50
2023/03/11 09:00:36;;;;;;;8.07;6.40;;;4.00;99.90;;;;;;5091825;28;20205;-50
2023/03/11 09:03:03;;;;;;;5.95;5.30;;;4.20;99.90;;;;;;5091502;28;20214;-50
2023/03/11 09:05:30;;;;;;;8.60;6.70;;;4.10;99.90;;;;;;5091875;28;20218;-51
2023/03/11 09:07:56;;;;;;;8.15;6.18;;;3.70;99.90;;;;;;5091665;28;20198;-50
2023/03/11 09:10:23;;;;;;;8.70;6.13;;;3.90;99.90;;;;;;5091813;28;20195;-50
2023/03/11 09:12:50;;;;;;;10.00;6.50;;;3.90;99.90;;;;;;5091494;28;20225;-50
2023/03/11 09:15:17;;;;;;;6.25;5.35;;;4.20;99.90;;;;;;5091904;28;20222;-50
2023/03/11 09:17:45;;;;;;;6.90;4.80;;;4.20;99.90;;;;;;5091579;28;20277;-50
2023/03/11 09:20:13;;;;;;;7.10;5.32;;;4.50;99.90;;;;;;5091481;28;20271;-50
2023/03/11 09:22:40;;;;;;;6.88;5.70;;;4.20;99.90;;;;;;5091380;28;20228;-50
2023/03/11 09:25:08;;;;;;;6.82;5.50;;;4.40;99.90;;;;;;5091851;28;20228;-50
2023/03/11 09:27:34;;;;;;;7.55;5.55;;;4.10;99.90;;;;;;5091327;28;20503;-50
2023/03/11 09:30:01;;;;;;;10.30;5.10;;;4.20;99.90;;;;;;5091287;28;20217;-51
2023/03/11 09:32:28;;;;;;;6.68;5.22;;;4.30;99.90;;;;;;5092612;28;20229;-50
2023/03/11 09:34:56;;;;;;;10.85;6.32;;;4.50;99.90;;;;;;5095723;28;20194;-51
2023/03/11 09:37:23;;;;;;;6.90;5.50;;;4.50;99.90;;;;;;5095459;28;20195;-51
2023/03/11 09:39:49;;;;;;;7.32;6.18;;;4.40;99.90;;;;;;5095451;28;20221;-51
2023/03/11 09:42:27;;;;;;;8.25;6.20;;;4.30;99.90;;;;;;5095475;28;20620;-50
2023/03/11 09:45:00;;;;;;;9.90;6.85;;;4.40;99.90;;;;;;5095708;28;20206;-49
2023/03/11 09:47:40;;;;;;;9.75;7.18;;;4.70;99.90;;;;;;5095361;28;20275;-51
2023/03/11 09:50:23;;;;;;;8.90;6.07;;;4.80;99.90;;;;;;5094853;28;20291;-49
2023/03/11 09:52:58;;;;;;;7.13;6.28;;;4.80;99.90;;;;;;5094741;28;20231;-51
2023/03/11 09:55:32;;;;;;;7.22;6.47;;;5.40;99.90;;;;;;5095022;28;20195;-50
2023/03/11 09:58:03;;;;;;;20.65;13.93;;;4.90;99.90;;;;;;5094834;28;20685;-51
2023/03/11 10:00:30;;;;;;;9.15;6.88;;;5.10;99.90;;;;;;5095128;28;20223;-49
2023/03/11 10:02:57;;;;;;;7.20;6.45;;;4.40;99.90;;;;;;5095168;28;20721;-50
2023/03/11 10:05:28;;;;;;;6.10;5.60;;;5.20;99.90;;;;;;5095332;28;20191;-51
2023/03/11 10:08:02;;;;;;;8.73;6.55;;;5.00;99.90;;;;;;5094852;28;20285;-50
2023/03/11 10:10:33;;;;;;;8.55;5.90;;;5.30;99.90;;;;;;5094344;28;20670;-50
2023/03/11 10:13:08;;;;;;;8.97;6.00;;;5.50;99.90;;;;;;5094510;28;20214;-50
2023/03/11 10:15:47;;;;;;;8.05;6.40;;;5.50;99.90;;;;;;5094733;28;20475;-50
2023/03/11 10:18:42;;;;;;;6.88;6.10;;;5.50;99.90;;;;;;5094056;28;20203;-50
2023/03/11 10:21:18;;;;;;;6.45;5.60;;;5.70;99.90;;;;;;5094613;28;20210;-50
2023/03/11 10:23:59;;;;;;;8.20;5.50;;;5.50;99.90;;;;;;5094977;28;20230;-51
2023/03/11 10:26:32;;;;;;;7.93;6.30;;;5.10;99.90;;;;;;5094720;28;20472;-49
2023/03/11 10:29:06;;;;;;;7.45;6.75;;;5.70;99.90;;;;;;5094242;28;20432;-49
2023/03/11 10:31:38;;;;;;;7.28;6.57;;;5.30;99.90;;;;;;5094335;28;20585;-50
2023/03/11 10:34:14;;;;;;;7.93;6.85;;;5.30;99.90;;;;;;5094259;28;20508;-49
2023/03/11 10:36:50;;;;;;;8.13;6.90;;;5.60;99.90;;;;;;5094490;28;20246;-50
2023/03/11 10:39:18;;;;;;;7.40;6.15;;;5.50;99.90;;;;;;5093932;28;20443;-50
2023/03/11 10:41:51;;;;;;;6.83;6.00;;;5.00;99.90;;;;;;5094428;28;20196;-50
2023/03/11 10:44:25;;;;;;;8.00;6.77;;;5.70;99.90;;;;;;5094621;28;20844;-50
2023/03/11 10:46:51;;;;;;;9.47;6.10;;;5.40;99.90;;;;;;5094586;28;20430;-49
2023/03/11 10:49:18;;;;;;;6.80;6.20;;;5.80;99.90;;;;;;5094292;28;20437;-53
2023/03/11 10:51:48;;;;;;;7.03;5.97;;;5.60;99.90;;;;;;5094673;28;20438;-50
2023/03/11 10:54:23;;;;;;;13.05;8.52;;;5.60;99.90;;;;;;5094423;28;20537;-51
2023/03/11 10:56:55;;;;;;;12.57;9.73;;;5.60;99.90;;;;;;5094040;28;20202;-51
2023/03/11 10:59:26;;;;;;;7.17;6.47;;;5.60;99.90;;;;;;5093602;28;20554;-51
2023/03/11 11:01:57;;;;;;;7.32;5.93;;;5.00;99.90;;;;;;5093565;28;20428;-52
2023/03/11 11:04:29;;;;;;;7.87;7.17;;;5.50;99.90;;;;;;5094039;28;20191;-49
2023/03/11 11:06:58;;;;;;;7.03;6.33;;;5.30;99.90;;;;;;5094170;28;20893;-50
2023/03/11 11:09:24;;;;;;;9.13;7.60;;;5.40;99.90;;;;;;5093426;28;20478;-51
2023/03/11 11:12:04;;;;;;;9.07;7.70;;;5.30;99.90;;;;;;5093424;28;20984;-51
2023/03/11 11:14:44;;;;;;;10.77;7.57;;;5.50;99.90;;;;;;5093785;28;20434;-50
2023/03/11 11:17:22;;;;;;;8.95;6.95;;;5.50;99.90;;;;;;5093644;28;20415;-49
2023/03/11 11:19:50;;;;;;;7.50;6.70;;;4.80;99.90;;;;;;5092846;28;20202;-51
2023/03/11 11:22:20;;;;;;;9.50;8.60;;;5.50;99.90;;;;;;5118927;22;20301;-50
2023/03/11 11:24:50;;;;;;;12.10;8.93;;;5.30;99.90;;;;;;5114396;28;20428;-51
2023/03/11 11:27:19;;;;;;;11.18;7.63;;;4.70;99.90;;;;;;5114178;28;20452;-51
2023/03/11 11:29:47;;;;;;;12.52;9.52;;;5.60;99.90;;;;;;5112744;28;20198;-50
2023/03/11 11:32:24;;;;;;;8.33;7.40;;;5.30;99.90;;;;;;5113340;28;20209;-51
2023/03/11 11:34:59;;;;;;;8.63;7.73;;;5.80;99.90;;;;;;5114091;28;20439;-51
2023/03/11 11:37:30;;;;;;;10.93;8.20;;;5.60;99.90;;;;;;5114078;28;20427;-50
2023/03/11 11:40:00;;;;;;;9.97;8.50;;;5.80;99.90;;;;;;5113826;28;20438;-50
2023/03/11 11:42:30;;;;;;;9.75;8.75;;;5.50;99.90;;;;;;5113938;28;20873;-50
2023/03/11 11:45:02;;;;;;;9.10;8.20;;;5.80;99.90;;;;;;5113812;28;20233;-51
2023/03/11 11:47:34;;;;;;;9.50;8.60;;;5.20;99.90;;;;;;5113720;28;20494;-51
2023/03/11 11:50:03;;;;;;;10.03;9.00;;;6.20;99.90;;;;;;5113647;28;20436;-51
2023/03/11 11:52:37;;;;;;;9.37;8.37;;;6.30;99.90;;;;;;5114054;28;20456;-51
2023/03/11 11:55:07;;;;;;;12.63;9.30;;;5.50;99.90;;;;;;5114124;28;20398;-51
2023/03/11 11:57:34;;;;;;;10.87;9.30;;;5.90;99.90;;;;;;5114169;28;20411;-50
2023/03/11 12:00:04;;;;;;;9.10;8.20;;;5.90;99.90;;;;;;5112939;28;20454;-50
2023/03/11 12:02:52;;;;;;;11.13;9.70;;;5.80;99.90;;;;;;5113404;28;20407;-51
2023/03/11 12:05:25;;;;;;;9.40;8.17;;;5.90;99.90;;;;;;5113349;28;20440;-51
2023/03/11 12:08:08;;;;;;;11.77;9.77;;;5.90;99.90;;;;;;5113376;28;20489;-51
2023/03/11 12:10:41;;;;;;;12.20;8.33;;;5.90;99.90;;;;;;5113510;28;20435;-51
2023/03/11 12:13:45;;;;;;;10.90;8.67;;;6.20;99.90;;;;;;5112968;28;20422;-51
2023/03/11 12:16:20;;;;;;;10.07;9.07;;;6.00;99.90;;;;;;5113417;28;20483;-51
2023/03/11 12:18:52;;;;;;;9.80;8.90;;;5.80;99.90;;;;;;5112869;28;20542;-51
2023/03/11 12:21:32;;;;;;;9.33;8.43;;;6.10;99.90;;;;;;5112983;28;20903;-51
2023/03/11 12:24:18;;;;;;;8.53;7.63;;;5.50;99.90;;;;;;5112963;28;20450;-51
2023/03/11 12:26:47;;;;;;;12.10;9.00;;;5.80;99.90;;;;;;5111721;28;20445;-51
2023/03/11 12:29:23;;;;;;;8.93;8.07;;;5.40;99.90;;;;;;5094342;28;20460;-50
2023/03/11 12:31:50;;;;;;;11.27;8.43;;;6.50;99.90;;;;;;5113045;28;20743;-51
2023/03/11 12:34:20;;;;;;;12.33;11.00;;;5.60;99.90;;;;;;5112962;28;20427;-51
2023/03/11 12:36:49;;;;;;;9.77;8.77;;;5.80;99.90;;;;;;5113184;28;20905;-51
2023/03/11 12:39:23;;;;;;;10.13;9.13;;;6.00;99.90;;;;;;5112556;28;20450;-51
2023/03/11 12:42:20;;;;;;;10.07;9.00;;;6.00;99.90;;;;;;5113103;28;20479;-51
2023/03/11 12:44:48;;;;;;;13.25;8.90;;;5.60;99.90;;;;;;5113453;28;20405;-51
2023/03/11 12:47:26;;;;;;;9.63;8.60;;;5.80;99.90;;;;;;5112917;28;20271;-51
2023/03/11 12:49:54;;;;;;;11.10;8.80;;;5.80;99.90;;;;;;5115108;28;20761;-50
2023/03/11 12:52:30;;;;;;;11.10;9.23;;;6.10;99.90;;;;;;5113755;28;20455;-51
2023/03/11 12:55:37;;;;;;;9.07;7.67;;;5.90;99.90;;;;;;5111889;28;20400;-50
2023/03/11 12:58:32;;;;;;;9.30;8.10;;;6.00;99.90;;;;;;5094118;28;20427;-50
2023/03/11 13:01:31;;;;;;;9.57;8.43;;;5.80;99.90;;;;;;5112637;28;20487;-49
2023/03/11 13:04:11;;;;;;;10.50;8.30;;;5.90;99.90;;;;;;5112622;28;20231;-49
2023/03/11 13:07:08;;;;;;;10.00;8.87;;;5.70;99.90;;;;;;5111449;28;20886;-50